Anchor, Texas
Current Conditions -  °F | °C
As of 11:53 AM on Friday 28 Nov 2014 (Local Time) from KLBX Reporting Station
Broken Clouds Broken Clouds  
Wind Chill: 69°   Ceiling: 4400
Heat Index: 69°   Visibility: 10mi
Dew Point: 55°   Wind: 14mph
Humidity: 61%   Direction: 150°SSE
Pressure: 30.28"   Gusts: 20mph
Location:  29.1898°N, 95.4754°W
Report Text: KLBX 281753Z AUTO 15012G17KT 10SM BKN044 21/13 A3028 RMK AO2 SLP253 T02060128 10211 20056 58023
Loading
Personal Weather Stations






























Interactive Weather Map New forecast layout! Learn more

10-Day Weather Forecast

Advertisements
Track Severe Weather on mobile